Time;durP1;ratioP1;P1;durP2;ratioP2;P2;SDS_P1;SDS_P2;PMS_P1;PMS_P2;Temp;Humidity;BMP_temperature;BMP_pressure;BME280_temperature;BME280_humidity;BME280_pressure;Samples;Min_cycle;Max_cycle;Signal;HPM_P1;HPM_P2
2022/07/11 00:01:48;;;;;;;0.40;0.20;;;;;;;;;;5105016;27;20454;-83
2022/07/11 00:04:14;;;;;;;0.00;0.00;;;;;;;;;;5109709;28;20910;-82
2022/07/11 00:06:40;;;;;;;0.00;0.00;;;;;;;;;;5094419;28;20813;-82
2022/07/11 00:09:06;;;;;;;0.10;0.10;;;;;;;;;;5083122;28;20424;-82
2022/07/11 00:11:32;;;;;;;0.10;0.10;;;;;;;;;;5078076;28;20427;-82
2022/07/11 00:13:58;;;;;;;0.00;0.00;;;;;;;;;;5090153;27;20415;-83
2022/07/11 00:16:24;;;;;;;0.10;0.10;;;;;;;;;;5079539;28;20891;-83
2022/07/11 00:18:50;;;;;;;0.10;0.10;;;;;;;;;;5065018;28;20433;-82
2022/07/11 00:21:16;;;;;;;0.10;0.10;;;;;;;;;;5093029;28;20420;-82
2022/07/11 00:23:43;;;;;;;0.10;0.10;;;;;;;;;;5108603;28;20557;-81
2022/07/11 00:26:09;;;;;;;0.10;0.10;;;;;;;;;;5066476;28;20438;-82
2022/07/11 00:28:35;;;;;;;0.10;0.10;;;;;;;;;;5080244;28;20435;-82
2022/07/11 00:31:01;;;;;;;0.10;0.10;;;;;;;;;;5100799;27;20432;-83
2022/07/11 00:33:27;;;;;;;0.10;0.10;;;;;;;;;;5099069;27;20916;-82
2022/07/11 00:35:53;;;;;;;0.10;0.10;;;;;;;;;;5088667;27;20904;-82
2022/07/11 00:38:19;;;;;;;0.10;0.10;;;;;;;;;;5094463;28;20756;-82
2022/07/11 00:40:45;;;;;;;0.10;0.10;;;;;;;;;;5095812;28;20425;-81
2022/07/11 00:43:12;;;;;;;0.10;0.10;;;;;;;;;;5082289;28;20461;-81
2022/07/11 00:45:38;;;;;;;0.10;0.10;;;;;;;;;;5108057;28;20470;-81
2022/07/11 00:48:04;;;;;;;0.10;0.10;;;;;;;;;;5090627;28;20504;-81
2022/07/11 00:50:30;;;;;;;0.10;0.10;;;;;;;;;;5092358;28;20436;-81
2022/07/11 00:52:57;;;;;;;0.10;0.10;;;;;;;;;;5096444;27;20429;-82
2022/07/11 00:55:23;;;;;;;0.10;0.10;;;;;;;;;;5075876;28;20439;-82
2022/07/11 00:57:52;;;;;;;0.10;0.10;;;;;;;;;;5098268;27;20415;-83
2022/07/11 01:00:18;;;;;;;0.10;0.10;;;;;;;;;;5081134;28;20424;-82
2022/07/11 01:07:56;;;;;;;0.10;0.10;;;;;;;;;;5246044;22;20627;-84
2022/07/11 01:10:23;;;;;;;0.10;0.10;;;;;;;;;;4974568;28;20484;-84
2022/07/11 01:12:50;;;;;;;0.10;0.10;;;;;;;;;;4975040;28;20422;-84
2022/07/11 01:15:16;;;;;;;0.10;0.10;;;;;;;;;;4975889;28;20502;-83
2022/07/11 01:17:42;;;;;;;0.10;0.10;;;;;;;;;;4975639;28;20905;-82
2022/07/11 01:20:08;;;;;;;0.00;0.00;;;;;;;;;;4960194;28;20406;-82
2022/07/11 01:22:37;;;;;;;0.00;0.00;;;;;;;;;;4959618;28;20919;-83
2022/07/11 01:25:03;;;;;;;0.10;0.10;;;;;;;;;;4975863;28;20418;-83
2022/07/11 01:27:29;;;;;;;0.10;0.10;;;;;;;;;;4960104;28;20441;-82
2022/07/11 01:29:55;;;;;;;0.10;0.10;;;;;;;;;;4975304;28;20493;-83
2022/07/11 01:32:22;;;;;;;0.10;0.10;;;;;;;;;;4959991;28;20814;-82
2022/07/11 01:34:48;;;;;;;0.10;0.10;;;;;;;;;;4975269;28;20913;-80
2022/07/11 01:37:14;;;;;;;0.10;0.10;;;;;;;;;;4958321;28;20473;-82
2022/07/11 01:39:41;;;;;;;0.10;0.10;;;;;;;;;;4958604;28;20497;-82
2022/07/11 01:42:07;;;;;;;0.10;0.10;;;;;;;;;;4975514;28;20418;-82
2022/07/11 01:44:33;;;;;;;0.10;0.10;;;;;;;;;;4975939;28;20410;-82
2022/07/11 01:46:59;;;;;;;0.10;0.10;;;;;;;;;;4959207;28;21107;-82
2022/07/11 01:49:29;;;;;;;0.10;0.10;;;;;;;;;;4959042;28;20449;-82
2022/07/11 01:51:55;;;;;;;0.10;0.10;;;;;;;;;;4959642;28;20889;-82
2022/07/11 01:54:21;;;;;;;0.10;0.10;;;;;;;;;;4975160;28;20905;-82
2022/07/11 01:56:48;;;;;;;0.10;0.10;;;;;;;;;;4959214;28;20422;-83
2022/07/11 01:59:14;;;;;;;0.10;0.10;;;;;;;;;;4959318;28;20496;-83
2022/07/11 02:01:40;;;;;;;0.10;0.10;;;;;;;;;;4959150;28;20896;-83
2022/07/11 02:04:06;;;;;;;0.10;0.10;;;;;;;;;;4959054;28;20411;-83
2022/07/11 02:06:32;;;;;;;0.10;0.10;;;;;;;;;;4975189;28;20901;-82
2022/07/11 02:08:58;;;;;;;0.10;0.10;;;;;;;;;;4974466;28;20927;-83
2022/07/11 02:11:24;;;;;;;0.10;0.10;;;;;;;;;;4959082;28;20530;-82
2022/07/11 02:13:51;;;;;;;0.10;0.10;;;;;;;;;;4958917;28;20446;-81
2022/07/11 02:16:17;;;;;;;0.10;0.10;;;;;;;;;;4958383;28;20453;-82
2022/07/11 02:18:43;;;;;;;0.00;0.00;;;;;;;;;;4958586;28;20635;-82
2022/07/11 02:21:09;;;;;;;0.10;0.10;;;;;;;;;;4975089;28;20414;-82
2022/07/11 02:23:35;;;;;;;0.10;0.10;;;;;;;;;;4975060;28;20425;-82
2022/07/11 02:26:01;;;;;;;0.00;0.00;;;;;;;;;;4958610;28;20966;-83
2022/07/11 02:28:27;;;;;;;0.10;0.10;;;;;;;;;;4975206;28;20817;-85
2022/07/11 02:30:53;;;;;;;0.10;0.10;;;;;;;;;;4974611;28;20485;-81
2022/07/11 02:33:19;;;;;;;0.10;0.10;;;;;;;;;;4959074;28;20406;-82
2022/07/11 02:35:46;;;;;;;0.00;0.00;;;;;;;;;;4958464;28;20438;-82
2022/07/11 02:38:13;;;;;;;0.10;0.10;;;;;;;;;;4958555;28;20425;-81
2022/07/11 02:40:39;;;;;;;0.10;0.10;;;;;;;;;;4958766;28;20580;-82
2022/07/11 02:43:06;;;;;;;0.10;0.10;;;;;;;;;;4974815;28;20410;-82
2022/07/11 02:45:32;;;;;;;0.10;0.10;;;;;;;;;;4958803;28;20421;-82
2022/07/11 02:47:58;;;;;;;0.00;0.00;;;;;;;;;;4974320;28;20418;-82
2022/07/11 02:50:24;;;;;;;0.10;0.10;;;;;;;;;;4974828;28;20414;-82
2022/07/11 02:52:50;;;;;;;0.10;0.10;;;;;;;;;;4958650;28;20580;-82
2022/07/11 02:55:16;;;;;;;0.10;0.10;;;;;;;;;;4974697;28;20975;-82
2022/07/11 02:57:42;;;;;;;0.10;0.10;;;;;;;;;;4958577;28;20768;-84
2022/07/11 03:00:11;;;;;;;0.10;0.10;;;;;;;;;;4974479;28;20469;-84
2022/07/11 03:02:37;;;;;;;0.10;0.10;;;;;;;;;;4974702;28;20414;-83
2022/07/11 03:05:04;;;;;;;0.10;0.10;;;;;;;;;;4961940;28;20419;-83
2022/07/11 03:07:30;;;;;;;0.10;0.10;;;;;;;;;;4962178;28;20481;-83
2022/07/11 03:09:56;;;;;;;0.10;0.10;;;;;;;;;;4978046;28;20429;-83
2022/07/11 03:12:22;;;;;;;0.10;0.10;;;;;;;;;;4962572;28;20501;-82
2022/07/11 03:14:49;;;;;;;0.03;0.03;;;;;;;;;;4978091;28;20446;-82
2022/07/11 03:17:15;;;;;;;0.10;0.10;;;;;;;;;;4962339;28;20426;-81
2022/07/11 03:19:42;;;;;;;0.10;0.10;;;;;;;;;;4962002;28;20418;-81
2022/07/11 03:22:08;;;;;;;0.10;0.10;;;;;;;;;;4962063;28;20418;-82
2022/07/11 03:24:34;;;;;;;0.00;0.00;;;;;;;;;;4962075;28;20426;-82
2022/07/11 03:27:00;;;;;;;0.10;0.10;;;;;;;;;;4961734;28;20426;-83
2022/07/11 03:29:26;;;;;;;0.10;0.10;;;;;;;;;;4978006;28;20766;-83
2022/07/11 03:31:52;;;;;;;0.10;0.10;;;;;;;;;;4961884;28;20426;-88
2022/07/11 03:34:18;;;;;;;0.10;0.10;;;;;;;;;;4961900;28;20445;-83
2022/07/11 03:36:46;;;;;;;0.10;0.10;;;;;;;;;;4962025;28;20445;-81
2022/07/11 03:39:12;;;;;;;0.10;0.10;;;;;;;;;;4977278;28;20422;-84
2022/07/11 03:41:38;;;;;;;0.00;0.00;;;;;;;;;;4961582;28;20419;-82
2022/07/11 03:44:05;;;;;;;0.10;0.10;;;;;;;;;;4977240;28;20502;-82
2022/07/11 03:46:31;;;;;;;0.10;0.10;;;;;;;;;;4961490;28;20501;-82
2022/07/11 03:48:57;;;;;;;0.10;0.10;;;;;;;;;;4977519;28;20418;-83
2022/07/11 03:51:23;;;;;;;0.10;0.10;;;;;;;;;;4977650;28;20410;-81
2022/07/11 03:53:49;;;;;;;0.10;0.10;;;;;;;;;;4977402;28;20481;-83
2022/07/11 03:56:18;;;;;;;0.10;0.10;;;;;;;;;;4961002;28;20457;-84
2022/07/11 03:58:44;;;;;;;0.10;0.10;;;;;;;;;;4961707;28;20422;-84
2022/07/11 04:01:10;;;;;;;0.00;0.00;;;;;;;;;;4960762;28;20414;-85
2022/07/11 04:03:36;;;;;;;0.17;0.17;;;;;;;;;;4961482;28;20406;-83
2022/07/11 04:06:02;;;;;;;0.10;0.10;;;;;;;;;;4977251;28;20464;-84
2022/07/11 04:08:28;;;;;;;0.10;0.10;;;;;;;;;;4960911;28;20422;-84
2022/07/11 04:10:54;;;;;;;0.10;0.10;;;;;;;;;;4960891;28;20415;-83
2022/07/11 04:13:20;;;;;;;0.10;0.10;;;;;;;;;;4960878;28;20928;-82
2022/07/11 04:15:47;;;;;;;0.10;0.10;;;;;;;;;;4977017;28;20446;-82
2022/07/11 04:18:13;;;;;;;0.00;0.00;;;;;;;;;;4976841;28;20721;-82
2022/07/11 04:20:40;;;;;;;0.40;0.40;;;;;;;;;;4976885;28;20480;-81
2022/07/11 04:23:06;;;;;;;0.10;0.10;;;;;;;;;;4960659;28;20434;-82
2022/07/11 04:25:34;;;;;;;0.10;0.10;;;;;;;;;;4976997;28;20414;-82
2022/07/11 04:28:00;;;;;;;0.10;0.10;;;;;;;;;;4976654;28;20414;-82
2022/07/11 04:30:26;;;;;;;0.10;0.10;;;;;;;;;;4977019;28;20423;-83
2022/07/11 04:32:53;;;;;;;0.10;0.10;;;;;;;;;;4977028;28;20437;-84
2022/07/11 04:35:19;;;;;;;0.00;0.00;;;;;;;;;;4976043;28;20943;-82
2022/07/11 04:37:46;;;;;;;0.10;0.10;;;;;;;;;;4961032;28;20418;-81
2022/07/11 04:40:12;;;;;;;0.10;0.10;;;;;;;;;;4976427;28;20414;-83
2022/07/11 04:42:38;;;;;;;0.10;0.10;;;;;;;;;;4976699;28;20418;-83
2022/07/11 04:45:04;;;;;;;0.10;0.10;;;;;;;;;;4960522;28;20423;-81
2022/07/11 04:47:31;;;;;;;0.10;0.10;;;;;;;;;;4976555;28;20804;-81
2022/07/11 04:49:57;;;;;;;0.00;0.00;;;;;;;;;;4960219;28;20414;-83
2022/07/11 04:52:26;;;;;;;0.03;0.03;;;;;;;;;;4960672;28;20927;-81
2022/07/11 04:54:53;;;;;;;0.10;0.10;;;;;;;;;;4975928;28;20462;-82
2022/07/11 04:57:19;;;;;;;0.10;0.10;;;;;;;;;;4976190;28;20959;-82
2022/07/11 04:59:45;;;;;;;0.10;0.10;;;;;;;;;;4960084;28;20426;-82
2022/07/11 05:02:11;;;;;;;0.10;0.10;;;;;;;;;;4975972;28;20421;-81
2022/07/11 05:04:37;;;;;;;0.10;0.10;;;;;;;;;;4976318;28;20464;-81
2022/07/11 05:07:03;;;;;;;0.10;0.10;;;;;;;;;;4975886;28;20516;-82
2022/07/11 05:09:29;;;;;;;0.05;0.05;;;;;;;;;;4975783;28;20557;-82
2022/07/11 05:11:55;;;;;;;0.10;0.10;;;;;;;;;;4976079;28;20422;-81
2022/07/11 05:14:21;;;;;;;0.10;0.10;;;;;;;;;;4959525;28;20447;-83
2022/07/11 05:16:47;;;;;;;0.00;0.00;;;;;;;;;;4960111;28;20406;-81
2022/07/11 05:19:13;;;;;;;0.10;0.10;;;;;;;;;;4959582;28;20453;-82
2022/07/11 05:21:39;;;;;;;0.05;0.05;;;;;;;;;;4976071;28;20797;-82
2022/07/11 05:24:06;;;;;;;0.20;0.20;;;;;;;;;;4975509;28;20449;-84
2022/07/11 05:26:32;;;;;;;0.10;0.10;;;;;;;;;;4975499;28;20417;-84
2022/07/11 05:28:58;;;;;;;0.10;0.10;;;;;;;;;;4975902;28;20497;-83
2022/07/11 05:31:24;;;;;;;0.10;0.10;;;;;;;;;;4959541;28;20473;-82
2022/07/11 05:33:50;;;;;;;0.10;0.10;;;;;;;;;;4959510;28;20419;-81
2022/07/11 05:36:16;;;;;;;0.10;0.10;;;;;;;;;;4975148;28;20827;-82
2022/07/11 05:38:42;;;;;;;0.08;0.08;;;;;;;;;;4975454;28;20896;-82
2022/07/11 05:41:08;;;;;;;0.10;0.10;;;;;;;;;;4958780;28;20505;-79
2022/07/11 05:43:34;;;;;;;0.10;0.10;;;;;;;;;;4975565;28;20446;-79
2022/07/11 05:46:04;;;;;;;0.10;0.10;;;;;;;;;;4975156;28;20464;-87
2022/07/11 05:48:30;;;;;;;0.10;0.10;;;;;;;;;;4959401;28;20450;-83
2022/07/11 05:50:56;;;;;;;1.60;0.25;;;;;;;;;;4959418;28;20468;-78
2022/07/11 05:53:22;;;;;;;0.10;0.10;;;;;;;;;;4959076;28;20901;-81
2022/07/11 05:55:48;;;;;;;0.10;0.10;;;;;;;;;;4959147;28;20785;-82
2022/07/11 05:58:14;;;;;;;0.10;0.10;;;;;;;;;;4958882;28;20836;-84
2022/07/11 06:00:40;;;;;;;0.10;0.10;;;;;;;;;;4959409;28;20418;-82
2022/07/11 06:03:06;;;;;;;0.00;0.00;;;;;;;;;;4958840;28;20447;-84
2022/07/11 06:05:32;;;;;;;0.10;0.10;;;;;;;;;;4975482;28;20418;-83
2022/07/11 06:10:43;;;;;;;0.10;0.10;;;;;;;;;;4974892;28;20421;-80
2022/07/11 06:13:09;;;;;;;0.10;0.10;;;;;;;;;;4975156;28;20454;-78
2022/07/11 06:15:36;;;;;;;0.10;0.10;;;;;;;;;;4974753;28;20504;-82
2022/07/11 06:18:02;;;;;;;0.10;0.10;;;;;;;;;;4975237;28;20414;-80
2022/07/11 06:20:28;;;;;;;0.10;0.10;;;;;;;;;;4958846;28;20414;-82
2022/07/11 06:22:54;;;;;;;0.10;0.10;;;;;;;;;;4975294;28;20423;-82
2022/07/11 06:25:20;;;;;;;0.10;0.10;;;;;;;;;;4958455;28;20441;-81
2022/07/11 06:27:46;;;;;;;0.00;0.00;;;;;;;;;;4975220;28;20877;-80
2022/07/11 06:30:12;;;;;;;0.10;0.10;;;;;;;;;;4974752;28;21137;-82
2022/07/11 06:32:39;;;;;;;0.10;0.10;;;;;;;;;;4974786;28;20931;-82
2022/07/11 06:35:07;;;;;;;0.10;0.10;;;;;;;;;;4974931;28;20480;-82
2022/07/11 06:37:33;;;;;;;0.10;0.10;;;;;;;;;;4974489;28;20955;-82
2022/07/11 06:40:00;;;;;;;0.10;0.10;;;;;;;;;;4978150;28;20465;-82
2022/07/11 06:42:26;;;;;;;0.10;0.10;;;;;;;;;;4978757;28;20532;-85
2022/07/11 06:44:52;;;;;;;0.10;0.10;;;;;;;;;;4978853;28;20514;-82
2022/07/11 06:47:18;;;;;;;0.10;0.10;;;;;;;;;;4962338;28;20421;-84
2022/07/11 06:49:44;;;;;;;0.70;0.20;;;;;;;;;;4962727;28;20931;-86
2022/07/11 06:52:10;;;;;;;0.10;0.10;;;;;;;;;;4978557;28;20457;-87
2022/07/11 06:54:36;;;;;;;0.10;0.10;;;;;;;;;;4978679;28;20430;-87
2022/07/11 06:57:02;;;;;;;0.10;0.10;;;;;;;;;;4962454;28;20920;-87
2022/07/11 06:59:28;;;;;;;0.10;0.10;;;;;;;;;;4978089;28;20413;-87
2022/07/11 07:01:54;;;;;;;0.10;0.10;;;;;;;;;;4978700;28;20465;-87
2022/07/11 07:04:20;;;;;;;0.10;0.10;;;;;;;;;;4978184;28;20918;-88
2022/07/11 07:06:47;;;;;;;0.10;0.10;;;;;;;;;;4978618;28;20773;-81
2022/07/11 07:09:13;;;;;;;0.40;0.20;;;;;;;;;;4977429;28;20422;-81
2022/07/11 07:11:39;;;;;;;0.10;0.10;;;;;;;;;;4962194;28;20488;-78
2022/07/11 07:14:06;;;;;;;0.10;0.10;;;;;;;;;;4962199;28;20418;-82
2022/07/11 07:16:32;;;;;;;0.10;0.10;;;;;;;;;;4960836;28;20418;-84
2022/07/11 07:18:58;;;;;;;0.10;0.10;;;;;;;;;;4962240;28;20406;-87
2022/07/11 07:21:25;;;;;;;0.05;0.05;;;;;;;;;;4977744;28;20513;-78
2022/07/11 07:23:52;;;;;;;0.10;0.10;;;;;;;;;;4995260;28;20647;-81
2022/07/11 07:26:18;;;;;;;0.10;0.10;;;;;;;;;;4961624;28;20429;-85
2022/07/11 07:28:45;;;;;;;0.10;0.10;;;;;;;;;;4977489;28;20484;-79
2022/07/11 07:31:11;;;;;;;0.10;0.10;;;;;;;;;;4994856;28;20445;-74
2022/07/11 07:33:38;;;;;;;0.10;0.10;;;;;;;;;;4995150;28;20422;-79
2022/07/11 07:36:04;;;;;;;0.10;0.10;;;;;;;;;;4994714;28;20902;-75
2022/07/11 07:38:30;;;;;;;0.10;0.10;;;;;;;;;;4994595;28;20433;-75
2022/07/11 07:40:56;;;;;;;0.10;0.10;;;;;;;;;;4995049;28;20467;-77
2022/07/11 07:43:22;;;;;;;0.10;0.10;;;;;;;;;;4994402;28;20466;-78
2022/07/11 07:45:48;;;;;;;0.10;0.10;;;;;;;;;;4994646;28;20769;-79
2022/07/11 07:48:14;;;;;;;0.10;0.10;;;;;;;;;;4994372;28;20414;-80
2022/07/11 07:50:42;;;;;;;0.10;0.10;;;;;;;;;;4993730;28;20710;-79
2022/07/11 07:53:08;;;;;;;0.10;0.10;;;;;;;;;;4994679;28;20805;-79
2022/07/11 07:55:34;;;;;;;0.10;0.10;;;;;;;;;;4994431;28;20514;-79
2022/07/11 07:58:00;;;;;;;0.10;0.10;;;;;;;;;;4994383;28;20411;-81
2022/07/11 08:03:11;;;;;;;0.10;0.10;;;;;;;;;;4994464;28;20417;-78
2022/07/11 08:05:37;;;;;;;0.10;0.10;;;;;;;;;;4976543;28;20430;-81
2022/07/11 08:08:03;;;;;;;0.10;0.10;;;;;;;;;;4993940;28;20419;-79
2022/07/11 08:10:30;;;;;;;0.10;0.10;;;;;;;;;;4960763;28;20422;-82
2022/07/11 08:12:56;;;;;;;0.10;0.10;;;;;;;;;;4977119;28;20410;-76
2022/07/11 08:15:22;;;;;;;0.10;0.10;;;;;;;;;;4993711;28;20754;-80
2022/07/11 08:17:48;;;;;;;0.10;0.10;;;;;;;;;;4994359;28;20406;-77
2022/07/11 08:20:14;;;;;;;0.10;0.10;;;;;;;;;;4994009;28;20410;-79
2022/07/11 08:22:40;;;;;;;0.10;0.10;;;;;;;;;;4993653;28;20406;-79
2022/07/11 08:25:07;;;;;;;0.10;0.10;;;;;;;;;;4994435;28;20494;-79
2022/07/11 08:27:33;;;;;;;0.10;0.10;;;;;;;;;;4993769;28;20414;-79
2022/07/11 08:29:59;;;;;;;0.00;0.00;;;;;;;;;;4993976;28;20615;-77
2022/07/11 08:32:26;;;;;;;0.10;0.10;;;;;;;;;;4993613;28;20402;-82
2022/07/11 08:34:52;;;;;;;0.10;0.10;;;;;;;;;;4976670;28;20430;-77
2022/07/11 08:37:18;;;;;;;0.10;0.10;;;;;;;;;;4993783;28;20789;-83
2022/07/11 08:39:44;;;;;;;0.10;0.10;;;;;;;;;;4976771;28;20421;-79
2022/07/11 08:42:10;;;;;;;0.10;0.10;;;;;;;;;;4993474;28;20410;-80
2022/07/11 08:44:37;;;;;;;0.10;0.10;;;;;;;;;;4993834;28;20452;-79
2022/07/11 08:47:03;;;;;;;0.10;0.10;;;;;;;;;;4993606;28;20425;-78
2022/07/11 08:49:31;;;;;;;3.40;0.40;;;;;;;;;;4993561;28;20494;-79
2022/07/11 08:51:57;;;;;;;0.10;0.10;;;;;;;;;;4993011;28;20436;-77
2022/07/11 08:54:23;;;;;;;0.68;0.15;;;;;;;;;;4990778;28;20880;-81
2022/07/11 08:56:52;;;;;;;0.10;0.10;;;;;;;;;;4992346;28;20429;-77
2022/07/11 08:59:18;;;;;;;0.08;0.08;;;;;;;;;;4975611;28;20433;-77
2022/07/11 09:01:50;;;;;;;0.10;0.10;;;;;;;;;;4991922;28;20446;-77
2022/07/11 09:04:16;;;;;;;0.10;0.10;;;;;;;;;;4992870;28;20481;-77
2022/07/11 09:06:42;;;;;;;0.10;0.10;;;;;;;;;;4992248;28;21021;-75
2022/07/11 09:09:08;;;;;;;0.10;0.10;;;;;;;;;;4959210;28;20484;-75
2022/07/11 09:11:51;;;;;;;0.10;0.10;;;;;;;;;;4975041;28;20417;-75
2022/07/11 09:14:20;;;;;;;0.10;0.10;;;;;;;;;;4992687;28;20419;-76
2022/07/11 09:16:54;;;;;;;0.10;0.10;;;;;;;;;;4975292;28;21038;-76
2022/07/11 09:19:24;;;;;;;0.10;0.10;;;;;;;;;;4992030;28;20422;-81
2022/07/11 09:27:56;;;;;;;0.10;0.10;;;;;;;;;;4974713;28;20434;-78
2022/07/11 09:30:27;;;;;;;0.10;0.10;;;;;;;;;;4992116;28;20414;-79
2022/07/11 09:32:56;;;;;;;0.00;0.00;;;;;;;;;;4992468;28;20544;-77
2022/07/11 09:35:30;;;;;;;0.10;0.10;;;;;;;;;;4992116;28;20919;-78
2022/07/11 09:37:56;;;;;;;0.10;0.10;;;;;;;;;;4992381;28;20464;-77
2022/07/11 09:40:22;;;;;;;0.10;0.10;;;;;;;;;;4992115;28;20453;-79
2022/07/11 09:42:55;;;;;;;0.10;0.10;;;;;;;;;;4992072;28;20825;-79
2022/07/11 09:45:22;;;;;;;0.10;0.10;;;;;;;;;;4992165;28;20453;-78
2022/07/11 09:47:50;;;;;;;0.10;0.10;;;;;;;;;;4974727;28;20493;-77
2022/07/11 09:50:19;;;;;;;0.10;0.10;;;;;;;;;;4992202;28;20406;-78
2022/07/11 09:53:04;;;;;;;0.10;0.10;;;;;;;;;;4974578;28;20703;-78
2022/07/11 09:55:31;;;;;;;0.08;0.08;;;;;;;;;;4991864;28;20477;-78
2022/07/11 09:57:57;;;;;;;0.10;0.10;;;;;;;;;;4992366;28;20450;-77
2022/07/11 10:00:23;;;;;;;0.10;0.10;;;;;;;;;;4974902;28;20414;-78
2022/07/11 10:02:50;;;;;;;0.00;0.00;;;;;;;;;;4991960;28;20464;-76
2022/07/11 10:05:16;;;;;;;0.07;0.03;;;;;;;;;;4991827;28;20451;-77
2022/07/11 10:07:43;;;;;;;0.10;0.10;;;;;;;;;;4958222;28;20422;-76
2022/07/11 10:10:10;;;;;;;0.20;0.20;;;;;;;;;;4991766;28;20762;-80
2022/07/11 10:12:36;;;;;;;0.10;0.10;;;;;;;;;;4990986;28;20420;-74
2022/07/11 10:15:08;;;;;;;0.10;0.10;;;;;;;;;;4991764;28;20423;-75
2022/07/11 10:17:43;;;;;;;0.10;0.10;;;;;;;;;;4991530;28;20407;-77
2022/07/11 10:20:23;;;;;;;0.10;0.10;;;;;;;;;;4991849;28;20497;-82
2022/07/11 10:23:05;;;;;;;0.10;0.10;;;;;;;;;;4973926;28;20473;-81
2022/07/11 10:25:49;;;;;;;0.10;0.10;;;;;;;;;;4991828;28;20403;-78
2022/07/11 10:28:27;;;;;;;0.10;0.10;;;;;;;;;;4974353;28;20418;-76
2022/07/11 10:31:04;;;;;;;0.10;0.10;;;;;;;;;;4991470;28;20449;-79
2022/07/11 10:33:31;;;;;;;0.10;0.10;;;;;;;;;;4991271;28;20997;-78
2022/07/11 10:35:58;;;;;;;0.20;0.20;;;;;;;;;;4991267;28;20461;-80
2022/07/11 10:38:24;;;;;;;0.10;0.10;;;;;;;;;;4991293;28;20410;-80
2022/07/11 10:40:58;;;;;;;0.10;0.10;;;;;;;;;;4990996;28;20711;-76
2022/07/11 10:43:26;;;;;;;0.00;0.00;;;;;;;;;;4991043;28;20453;-79
2022/07/11 10:46:02;;;;;;;0.10;0.10;;;;;;;;;;4973768;28;20497;-82
2022/07/11 10:48:29;;;;;;;0.10;0.10;;;;;;;;;;4990949;28;20411;-80
2022/07/11 10:51:25;;;;;;;0.10;0.10;;;;;;;;;;4991599;28;20413;-78
2022/07/11 10:53:51;;;;;;;0.10;0.10;;;;;;;;;;4969801;28;20418;-77
2022/07/11 10:56:17;;;;;;;0.10;0.10;;;;;;;;;;4991300;28;20979;-77
2022/07/11 10:58:43;;;;;;;0.10;0.10;;;;;;;;;;4990987;28;20410;-78
2022/07/11 11:01:12;;;;;;;0.10;0.10;;;;;;;;;;4991776;28;20751;-78
2022/07/11 11:03:42;;;;;;;0.10;0.10;;;;;;;;;;4990081;28;20470;-78
2022/07/11 11:06:08;;;;;;;0.10;0.10;;;;;;;;;;4990617;28;20406;-78
2022/07/11 11:08:38;;;;;;;0.10;0.10;;;;;;;;;;4973232;28;20429;-82
2022/07/11 11:11:08;;;;;;;0.10;0.10;;;;;;;;;;4990972;28;20416;-77
2022/07/11 11:13:35;;;;;;;0.10;0.10;;;;;;;;;;4990876;28;20398;-79
2022/07/11 11:16:02;;;;;;;0.10;0.10;;;;;;;;;;4991215;28;20427;-77
2022/07/11 11:18:35;;;;;;;0.10;0.10;;;;;;;;;;4991037;28;20461;-79
2022/07/11 11:21:01;;;;;;;0.10;0.10;;;;;;;;;;4991072;28;20665;-77
2022/07/11 11:23:31;;;;;;;0.10;0.10;;;;;;;;;;4973543;28;20417;-79
2022/07/11 11:26:15;;;;;;;0.10;0.10;;;;;;;;;;4993851;28;20402;-78
2022/07/11 11:28:56;;;;;;;0.10;0.10;;;;;;;;;;4994323;28;20406;-79
2022/07/11 11:31:23;;;;;;;0.10;0.10;;;;;;;;;;4994763;28;20526;-78
2022/07/11 11:33:49;;;;;;;0.10;0.10;;;;;;;;;;4993877;28;20410;-78
2022/07/11 11:36:20;;;;;;;0.00;0.00;;;;;;;;;;4994667;28;20517;-79
2022/07/11 11:38:49;;;;;;;0.10;0.10;;;;;;;;;;4994028;28;20414;-79
2022/07/11 11:41:22;;;;;;;0.10;0.10;;;;;;;;;;4994497;28;20411;-80
2022/07/11 11:43:48;;;;;;;0.10;0.10;;;;;;;;;;4994100;28;20408;-79
2022/07/11 11:46:14;;;;;;;0.10;0.10;;;;;;;;;;4994181;28;20411;-79
2022/07/11 11:48:45;;;;;;;0.10;0.10;;;;;;;;;;4993994;28;20415;-79
2022/07/11 11:51:12;;;;;;;0.10;0.10;;;;;;;;;;4994473;28;20590;-79
2022/07/11 11:53:39;;;;;;;0.10;0.10;;;;;;;;;;4993691;28;20410;-79
2022/07/11 11:56:29;;;;;;;0.10;0.10;;;;;;;;;;4994182;28;20422;-79
2022/07/11 11:59:15;;;;;;;0.10;0.10;;;;;;;;;;4993718;28;20445;-78
2022/07/11 12:01:46;;;;;;;0.10;0.10;;;;;;;;;;4993826;28;20451;-79
2022/07/11 12:04:12;;;;;;;0.10;0.10;;;;;;;;;;4994119;28;20556;-78
2022/07/11 12:06:40;;;;;;;0.10;0.10;;;;;;;;;;4993578;28;20414;-79
2022/07/11 12:09:09;;;;;;;0.10;0.10;;;;;;;;;;4993455;28;20430;-79
2022/07/11 12:11:35;;;;;;;0.05;0.05;;;;;;;;;;4993658;28;20472;-80
2022/07/11 12:14:06;;;;;;;0.10;0.10;;;;;;;;;;4960634;28;20430;-78
2022/07/11 12:16:39;;;;;;;0.10;0.10;;;;;;;;;;4993770;28;20437;-80
2022/07/11 12:19:08;;;;;;;0.10;0.10;;;;;;;;;;4993638;28;20411;-80
2022/07/11 12:21:35;;;;;;;0.10;0.10;;;;;;;;;;4993791;28;20889;-83
2022/07/11 12:24:03;;;;;;;0.10;0.10;;;;;;;;;;4993305;28;20446;-81
2022/07/11 12:26:30;;;;;;;0.10;0.10;;;;;;;;;;4993673;28;20412;-79
2022/07/11 12:29:16;;;;;;;0.50;0.20;;;;;;;;;;4993474;28;20414;-79
2022/07/11 12:31:42;;;;;;;0.10;0.10;;;;;;;;;;4993168;28;20425;-78
2022/07/11 12:34:08;;;;;;;0.10;0.10;;;;;;;;;;4993517;28;20418;-79
2022/07/11 12:36:34;;;;;;;0.10;0.10;;;;;;;;;;4975892;28;20430;-80
2022/07/11 12:39:00;;;;;;;0.10;0.10;;;;;;;;;;4993000;28;20453;-78
2022/07/11 12:41:26;;;;;;;0.10;0.10;;;;;;;;;;4993307;28;20406;-81
2022/07/11 12:46:38;;;;;;;0.10;0.10;;;;;;;;;;4992766;28;20496;-80
2022/07/11 12:49:05;;;;;;;0.10;0.10;;;;;;;;;;4993080;28;20414;-78
2022/07/11 12:51:41;;;;;;;0.10;0.10;;;;;;;;;;4993282;28;20749;-77
2022/07/11 12:54:11;;;;;;;1.30;0.40;;;;;;;;;;4993247;28;20967;-79
2022/07/11 12:56:37;;;;;;;0.10;0.10;;;;;;;;;;4975284;28;20426;-82
2022/07/11 12:59:04;;;;;;;0.10;0.10;;;;;;;;;;4992994;28;20406;-78
2022/07/11 13:01:31;;;;;;;0.10;0.10;;;;;;;;;;4993052;28;20824;-78
2022/07/11 13:03:57;;;;;;;0.10;0.10;;;;;;;;;;4992288;28;20924;-81
2022/07/11 13:09:08;;;;;;;0.10;0.10;;;;;;;;;;4992810;28;20410;-80
2022/07/11 13:11:35;;;;;;;0.10;0.10;;;;;;;;;;4992823;28;20820;-77
2022/07/11 13:14:01;;;;;;;0.10;0.10;;;;;;;;;;4992450;28;20417;-77
2022/07/11 13:16:27;;;;;;;0.10;0.10;;;;;;;;;;4992602;28;20773;-78
2022/07/11 13:18:54;;;;;;;0.10;0.10;;;;;;;;;;4992336;28;20450;-77
2022/07/11 13:21:20;;;;;;;0.10;0.10;;;;;;;;;;4992723;28;20424;-78
2022/07/11 13:23:47;;;;;;;0.10;0.10;;;;;;;;;;4992016;28;20756;-78
2022/07/11 13:26:13;;;;;;;0.10;0.10;;;;;;;;;;4992682;28;20410;-78
2022/07/11 13:28:39;;;;;;;0.20;0.20;;;;;;;;;;4992192;28;20410;-78
2022/07/11 13:31:06;;;;;;;0.10;0.10;;;;;;;;;;4992494;28;20412;-78
2022/07/11 13:33:32;;;;;;;0.10;0.10;;;;;;;;;;4992362;28;20893;-77
2022/07/11 13:35:58;;;;;;;0.10;0.10;;;;;;;;;;4991691;28;20480;-78
2022/07/11 13:38:24;;;;;;;0.03;0.03;;;;;;;;;;4974962;28;20433;-79
2022/07/11 13:40:50;;;;;;;0.10;0.10;;;;;;;;;;4991798;28;20411;-78
2022/07/11 13:43:16;;;;;;;0.10;0.10;;;;;;;;;;4974917;28;20418;-78
2022/07/11 13:45:47;;;;;;;0.10;0.10;;;;;;;;;;4991733;28;20494;-79
2022/07/11 13:48:13;;;;;;;0.10;0.10;;;;;;;;;;4991816;28;20458;-78
2022/07/11 13:50:40;;;;;;;0.10;0.10;;;;;;;;;;4992149;28;20410;-79
2022/07/11 13:53:06;;;;;;;0.10;0.10;;;;;;;;;;4991887;28;20410;-78
2022/07/11 13:55:32;;;;;;;0.10;0.10;;;;;;;;;;4991824;28;20893;-78
2022/07/11 13:57:59;;;;;;;0.10;0.10;;;;;;;;;;4991399;28;20854;-77
2022/07/11 14:00:26;;;;;;;0.10;0.10;;;;;;;;;;4992090;28;20410;-78
2022/07/11 14:02:52;;;;;;;0.10;0.10;;;;;;;;;;4991664;28;20406;-77
2022/07/11 14:05:18;;;;;;;0.10;0.10;;;;;;;;;;4991865;28;20415;-78
2022/07/11 14:07:48;;;;;;;0.10;0.10;;;;;;;;;;4991209;28;20502;-79
2022/07/11 14:10:14;;;;;;;0.10;0.10;;;;;;;;;;4991954;28;20406;-79
2022/07/11 14:12:40;;;;;;;0.10;0.10;;;;;;;;;;4991937;28;20414;-78
2022/07/11 14:15:08;;;;;;;0.10;0.10;;;;;;;;;;4974045;28;20501;-81
2022/07/11 14:17:34;;;;;;;0.03;0.03;;;;;;;;;;4991756;28;20417;-78
2022/07/11 14:20:00;;;;;;;0.10;0.10;;;;;;;;;;4991436;28;20489;-78
2022/07/11 14:22:26;;;;;;;0.10;0.10;;;;;;;;;;4991429;28;20493;-75
2022/07/11 14:24:52;;;;;;;0.10;0.10;;;;;;;;;;4991499;28;20406;-80
2022/07/11 14:27:19;;;;;;;0.20;0.10;;;;;;;;;;4991066;28;20968;-80
2022/07/11 14:29:45;;;;;;;0.10;0.10;;;;;;;;;;4991006;28;20408;-80
2022/07/11 14:32:14;;;;;;;0.10;0.10;;;;;;;;;;4991236;28;20465;-81
2022/07/11 14:34:40;;;;;;;0.10;0.10;;;;;;;;;;4991352;28;20493;-79
2022/07/11 14:37:07;;;;;;;0.10;0.10;;;;;;;;;;4990777;28;20976;-76
2022/07/11 14:39:33;;;;;;;0.10;0.10;;;;;;;;;;4991510;28;20438;-76
2022/07/11 14:42:00;;;;;;;0.10;0.10;;;;;;;;;;4991522;28;20797;-76
2022/07/11 14:44:26;;;;;;;0.00;0.00;;;;;;;;;;4991583;28;20411;-77
2022/07/11 14:46:53;;;;;;;0.10;0.10;;;;;;;;;;4991044;28;20403;-75
2022/07/11 14:49:19;;;;;;;0.10;0.10;;;;;;;;;;4991473;28;20406;-78
2022/07/11 14:51:45;;;;;;;0.10;0.10;;;;;;;;;;4991428;28;20413;-82
2022/07/11 14:54:12;;;;;;;0.10;0.10;;;;;;;;;;4991250;28;20402;-76
2022/07/11 14:56:39;;;;;;;0.10;0.10;;;;;;;;;;4991270;28;20472;-75
2022/07/11 14:59:05;;;;;;;0.20;0.20;;;;;;;;;;4990892;28;20403;-75
2022/07/11 15:01:32;;;;;;;0.10;0.10;;;;;;;;;;4995298;28;20402;-76
2022/07/11 15:03:58;;;;;;;0.10;0.10;;;;;;;;;;4994749;28;20403;-75
2022/07/11 15:12:20;;;;;;;0.10;0.10;;;;;;;;;;4977972;28;20418;-77